Time;durP1;ratioP1;P1;durP2;ratioP2;P2;SDS_P1;SDS_P2;PMS_P1;PMS_P2;Temp;Humidity;BMP_temperature;BMP_pressure;BME280_temperature;BME280_humidity;BME280_pressure;Samples;Min_cycle;Max_cycle;Signal;HPM_P1;HPM_P2
2023/09/16 00:01:08;;;;;;;5.00;2.42;;;;;;;;;;2087637;28;20479;-67
2023/09/16 00:02:27;;;;;;;4.72;2.55;;;;;;;;;;2091229;28;20029;-68
2023/09/16 00:03:46;;;;;;;5.22;2.70;;;;;;;;;;2091775;28;20390;-67
2023/09/16 00:05:05;;;;;;;5.15;2.40;;;;;;;;;;2091914;28;20071;-68
2023/09/16 00:06:24;;;;;;;5.80;2.80;;;;;;;;;;2098184;28;20481;-68
2023/09/16 00:07:43;;;;;;;5.00;2.88;;;;;;;;;;2095126;28;20029;-69
2023/09/16 00:09:02;;;;;;;3.03;2.30;;;;;;;;;;2092106;28;20088;-68
2023/09/16 00:10:21;;;;;;;6.35;2.47;;;;;;;;;;2092138;28;20025;-69
2023/09/16 00:11:41;;;;;;;4.35;2.55;;;;;;;;;;2091870;28;20037;-67
2023/09/16 00:13:00;;;;;;;4.97;2.50;;;;;;;;;;2091474;28;20025;-68
2023/09/16 00:14:21;;;;;;;4.13;2.88;;;;;;;;;;2091044;28;20484;-67
2023/09/16 00:15:40;;;;;;;4.22;2.88;;;;;;;;;;2092161;28;20046;-68
2023/09/16 00:17:00;;;;;;;3.42;2.40;;;;;;;;;;2092638;28;20029;-67
2023/09/16 00:18:19;;;;;;;3.10;2.20;;;;;;;;;;2090492;28;20390;-67
2023/09/16 00:19:37;;;;;;;4.20;2.70;;;;;;;;;;2090706;28;20072;-67
2023/09/16 00:20:56;;;;;;;3.08;2.33;;;;;;;;;;2089363;28;20029;-68
2023/09/16 00:22:15;;;;;;;3.00;2.35;;;;;;;;;;2091621;28;20032;-67
2023/09/16 00:23:34;;;;;;;3.05;2.50;;;;;;;;;;2092730;28;20400;-68
2023/09/16 00:24:53;;;;;;;5.72;2.38;;;;;;;;;;2088280;28;20032;-68
2023/09/16 00:26:13;;;;;;;2.50;2.30;;;;;;;;;;2098806;28;20032;-69
2023/09/16 00:27:32;;;;;;;3.78;2.35;;;;;;;;;;2093636;28;20056;-67
2023/09/16 00:28:51;;;;;;;4.15;2.30;;;;;;;;;;2091878;28;20060;-67
2023/09/16 00:30:11;;;;;;;3.40;2.30;;;;;;;;;;2092487;28;20029;-67
2023/09/16 00:31:29;;;;;;;8.98;2.45;;;;;;;;;;2091599;28;20032;-68
2023/09/16 00:32:48;;;;;;;4.60;2.20;;;;;;;;;;2096212;28;20032;-68
2023/09/16 00:34:07;;;;;;;3.38;2.28;;;;;;;;;;2093925;28;20493;-67
2023/09/16 00:35:26;;;;;;;6.50;2.42;;;;;;;;;;2091316;28;20033;-68
2023/09/16 00:36:45;;;;;;;2.58;1.95;;;;;;;;;;2089903;28;20025;-68
2023/09/16 00:38:04;;;;;;;3.28;2.40;;;;;;;;;;2090411;28;20424;-68
2023/09/16 00:39:23;;;;;;;2.55;2.20;;;;;;;;;;2089955;28;20049;-67
2023/09/16 00:40:42;;;;;;;3.70;2.17;;;;;;;;;;2090236;28;20029;-67
2023/09/16 00:42:01;;;;;;;3.08;2.25;;;;;;;;;;2092051;28;20032;-67
2023/09/16 00:43:20;;;;;;;1.95;1.73;;;;;;;;;;2091419;28;20024;-68
2023/09/16 00:44:39;;;;;;;6.38;2.50;;;;;;;;;;2092062;28;20064;-68
2023/09/16 00:45:58;;;;;;;5.15;2.22;;;;;;;;;;2091947;28;20080;-67
2023/09/16 00:47:17;;;;;;;3.85;2.22;;;;;;;;;;2092458;28;20513;-67
2023/09/16 00:48:38;;;;;;;3.22;2.05;;;;;;;;;;2091871;28;20048;-68
2023/09/16 00:49:57;;;;;;;3.13;1.77;;;;;;;;;;2090284;28;20036;-67
2023/09/16 00:51:16;;;;;;;2.95;2.10;;;;;;;;;;2091455;28;20020;-68
2023/09/16 00:52:37;;;;;;;4.20;2.25;;;;;;;;;;2090514;28;20104;-68
2023/09/16 00:53:57;;;;;;;2.25;1.88;;;;;;;;;;2090687;28;20034;-67
2023/09/16 00:55:16;;;;;;;3.42;1.92;;;;;;;;;;2091209;28;20013;-68
2023/09/16 00:56:34;;;;;;;2.95;1.73;;;;;;;;;;2089675;28;20024;-68
2023/09/16 00:57:54;;;;;;;2.47;1.60;;;;;;;;;;2091171;28;20033;-68
2023/09/16 00:59:13;;;;;;;8.40;2.10;;;;;;;;;;2091459;28;20029;-67
2023/09/16 01:00:32;;;;;;;1.90;1.38;;;;;;;;;;2090401;28;20029;-67
2023/09/16 01:01:51;;;;;;;3.95;2.22;;;;;;;;;;2091193;28;20029;-68
2023/09/16 01:03:10;;;;;;;2.92;1.67;;;;;;;;;;2091040;28;20029;-68
2023/09/16 01:04:30;;;;;;;1.75;1.65;;;;;;;;;;2092576;28;20045;-67
2023/09/16 01:05:49;;;;;;;2.03;1.83;;;;;;;;;;2092839;28;20032;-67
2023/09/16 01:07:09;;;;;;;4.72;1.70;;;;;;;;;;2091408;28;20033;-67
2023/09/16 01:08:28;;;;;;;3.33;1.80;;;;;;;;;;2091588;28;20037;-67
2023/09/16 01:09:48;;;;;;;2.42;1.75;;;;;;;;;;2090083;28;20024;-67
2023/09/16 01:11:07;;;;;;;2.22;1.45;;;;;;;;;;2091206;28;20033;-68
2023/09/16 01:12:26;;;;;;;2.47;1.75;;;;;;;;;;2091724;28;20033;-67
2023/09/16 01:13:47;;;;;;;3.30;1.80;;;;;;;;;;2091098;28;20024;-68
2023/09/16 01:15:06;;;;;;;4.18;1.90;;;;;;;;;;2089873;28;20025;-67
2023/09/16 01:16:44;;;;;;;3.03;1.70;;;;;;;;;;2090598;28;20033;-67
2023/09/16 01:18:06;;;;;;;4.35;2.13;;;;;;;;;;2090768;28;20032;-67
2023/09/16 01:19:24;;;;;;;3.25;1.80;;;;;;;;;;2091459;28;20067;-67
2023/09/16 01:20:44;;;;;;;4.55;1.73;;;;;;;;;;2090690;28;20032;-68
2023/09/16 01:22:03;;;;;;;1.77;1.50;;;;;;;;;;2091343;28;20096;-67
2023/09/16 01:23:22;;;;;;;1.95;1.58;;;;;;;;;;2089802;28;20082;-67
2023/09/16 01:24:40;;;;;;;3.78;1.95;;;;;;;;;;2091485;28;20450;-68
2023/09/16 01:25:59;;;;;;;2.67;1.48;;;;;;;;;;2090787;28;20029;-68
2023/09/16 01:27:19;;;;;;;2.33;1.80;;;;;;;;;;2091537;28;20028;-69
2023/09/16 01:28:39;;;;;;;2.90;1.92;;;;;;;;;;2092075;28;20066;-68
2023/09/16 01:29:59;;;;;;;1.92;1.50;;;;;;;;;;2097673;28;20496;-68
2023/09/16 01:31:18;;;;;;;1.70;1.48;;;;;;;;;;2093381;28;20029;-67
2023/09/16 01:32:45;;;;;;;2.72;1.77;;;;;;;;;;2092136;28;20025;-67
2023/09/16 01:34:07;;;;;;;3.72;1.67;;;;;;;;;;2092821;28;20040;-67
2023/09/16 01:35:29;;;;;;;6.75;2.17;;;;;;;;;;2094322;28;20025;-67
2023/09/16 01:36:51;;;;;;;2.65;1.73;;;;;;;;;;2093562;28;20468;-68
2023/09/16 01:38:13;;;;;;;2.75;1.98;;;;;;;;;;2085565;28;20557;-68
2023/09/16 01:39:32;;;;;;;3.13;1.40;;;;;;;;;;2088968;28;20036;-67
2023/09/16 01:40:51;;;;;;;2.00;1.80;;;;;;;;;;2087965;28;20616;-69
2023/09/16 01:42:10;;;;;;;4.00;1.75;;;;;;;;;;2090327;28;20099;-68
2023/09/16 01:43:29;;;;;;;1.73;1.63;;;;;;;;;;2089443;28;20037;-67
2023/09/16 01:44:48;;;;;;;3.10;2.03;;;;;;;;;;2088896;28;20029;-67
2023/09/16 01:46:09;;;;;;;6.78;1.45;;;;;;;;;;2089254;28;20033;-67
2023/09/16 01:47:28;;;;;;;4.00;1.65;;;;;;;;;;2088405;28;20128;-68
2023/09/16 01:48:47;;;;;;;3.13;1.73;;;;;;;;;;2090878;28;20044;-67
2023/09/16 01:50:06;;;;;;;2.50;1.73;;;;;;;;;;2095598;28;20033;-67
2023/09/16 01:51:25;;;;;;;3.03;1.50;;;;;;;;;;2096177;28;20025;-69
2023/09/16 01:52:44;;;;;;;2.38;1.42;;;;;;;;;;2093657;28;20029;-67
2023/09/16 01:54:03;;;;;;;2.67;2.13;;;;;;;;;;2093437;28;20108;-68
2023/09/16 01:55:23;;;;;;;2.03;1.55;;;;;;;;;;2093589;28;20032;-67
2023/09/16 01:56:44;;;;;;;6.43;1.65;;;;;;;;;;2092097;28;20021;-68
2023/09/16 01:58:03;;;;;;;4.25;1.70;;;;;;;;;;2091411;28;20037;-67
2023/09/16 01:59:22;;;;;;;1.73;1.60;;;;;;;;;;2091566;28;20049;-67
2023/09/16 02:00:42;;;;;;;4.45;2.20;;;;;;;;;;2091244;28;20029;-67
2023/09/16 02:02:01;;;;;;;3.78;1.60;;;;;;;;;;2093486;28;20033;-67
2023/09/16 02:03:20;;;;;;;2.53;1.63;;;;;;;;;;2090966;28;20944;-67
2023/09/16 02:04:43;;;;;;;2.65;1.92;;;;;;;;;;2090614;28;20396;-67
2023/09/16 02:06:02;;;;;;;2.00;1.38;;;;;;;;;;2093781;28;20040;-67
2023/09/16 02:07:21;;;;;;;1.95;1.42;;;;;;;;;;2093092;28;20397;-67
2023/09/16 02:08:40;;;;;;;2.30;1.90;;;;;;;;;;2091725;28;20406;-67
2023/09/16 02:09:59;;;;;;;2.30;1.50;;;;;;;;;;2091384;28;20037;-67
2023/09/16 02:11:18;;;;;;;2.70;1.90;;;;;;;;;;2092476;28;20029;-67
2023/09/16 02:12:37;;;;;;;2.50;1.65;;;;;;;;;;2093606;28;20021;-68
2023/09/16 02:13:56;;;;;;;2.05;1.60;;;;;;;;;;2093099;28;20108;-67
2023/09/16 02:15:15;;;;;;;4.72;1.60;;;;;;;;;;2093615;28;20385;-67
2023/09/16 02:16:34;;;;;;;2.33;1.73;;;;;;;;;;2095534;28;20037;-67
2023/09/16 02:17:53;;;;;;;4.10;1.75;;;;;;;;;;2093795;28;20024;-68
2023/09/16 02:19:12;;;;;;;1.80;1.70;;;;;;;;;;2090940;28;20474;-67
2023/09/16 02:20:31;;;;;;;1.95;1.75;;;;;;;;;;2091490;28;20051;-68
2023/09/16 02:21:50;;;;;;;2.90;1.67;;;;;;;;;;2088678;28;20123;-67
2023/09/16 02:23:09;;;;;;;2.85;1.85;;;;;;;;;;2093675;28;20485;-67
2023/09/16 02:24:28;;;;;;;2.60;1.77;;;;;;;;;;2099221;28;20021;-67
2023/09/16 02:25:47;;;;;;;2.60;1.50;;;;;;;;;;2096166;28;20041;-68
2023/09/16 02:27:06;;;;;;;1.83;1.70;;;;;;;;;;2091624;28;20029;-68
2023/09/16 02:28:25;;;;;;;1.83;1.70;;;;;;;;;;2093067;28;20029;-67
2023/09/16 02:29:44;;;;;;;2.85;1.60;;;;;;;;;;2092912;28;20440;-68
2023/09/16 02:31:03;;;;;;;3.60;1.90;;;;;;;;;;2090395;28;20029;-68
2023/09/16 02:32:22;;;;;;;6.35;1.90;;;;;;;;;;2090335;28;20037;-67
2023/09/16 02:33:41;;;;;;;2.22;1.80;;;;;;;;;;2094241;28;20033;-67
2023/09/16 02:35:00;;;;;;;2.33;1.58;;;;;;;;;;2094369;28;20021;-68
2023/09/16 02:36:19;;;;;;;3.15;1.60;;;;;;;;;;2098345;28;20024;-67
2023/09/16 02:37:38;;;;;;;3.50;1.60;;;;;;;;;;2094888;28;20483;-67
2023/09/16 02:38:57;;;;;;;2.90;1.60;;;;;;;;;;2098011;28;20032;-67
2023/09/16 02:40:16;;;;;;;1.75;1.60;;;;;;;;;;2094647;28;20029;-68
2023/09/16 02:41:35;;;;;;;2.47;2.00;;;;;;;;;;2090866;28;20505;-68
2023/09/16 02:42:54;;;;;;;3.67;1.80;;;;;;;;;;2091969;28;20501;-67
2023/09/16 02:44:12;;;;;;;1.63;1.52;;;;;;;;;;2091525;28;20025;-67
2023/09/16 02:45:31;;;;;;;4.20;1.83;;;;;;;;;;2091931;28;20033;-67
2023/09/16 02:46:52;;;;;;;2.45;1.67;;;;;;;;;;2091171;28;20056;-67
2023/09/16 02:48:11;;;;;;;2.53;2.00;;;;;;;;;;2091519;28;20033;-68
2023/09/16 02:49:31;;;;;;;2.65;1.90;;;;;;;;;;2091386;28;20043;-68
2023/09/16 02:50:50;;;;;;;3.78;1.92;;;;;;;;;;2091234;28;20029;-67
2023/09/16 02:52:09;;;;;;;3.42;1.67;;;;;;;;;;2092145;28;20050;-67
2023/09/16 02:53:28;;;;;;;2.28;1.92;;;;;;;;;;2090366;28;20029;-68
2023/09/16 02:54:47;;;;;;;1.75;1.65;;;;;;;;;;2092360;28;20028;-69
2023/09/16 02:56:08;;;;;;;2.80;1.85;;;;;;;;;;2092837;28;20025;-67
2023/09/16 02:57:27;;;;;;;2.03;1.70;;;;;;;;;;2092661;28;20033;-68
2023/09/16 02:58:46;;;;;;;2.25;1.90;;;;;;;;;;2091485;28;20436;-67
2023/09/16 03:00:07;;;;;;;2.00;1.80;;;;;;;;;;2092183;28;20401;-67
2023/09/16 03:01:26;;;;;;;4.72;2.20;;;;;;;;;;2092515;28;20112;-67
2023/09/16 03:02:49;;;;;;;1.90;1.80;;;;;;;;;;2091452;28;20107;-68
2023/09/16 03:04:07;;;;;;;2.22;2.00;;;;;;;;;;2091855;28;20025;-67
2023/09/16 03:05:26;;;;;;;2.35;2.03;;;;;;;;;;2091287;28;20037;-67
2023/09/16 03:06:46;;;;;;;2.15;1.48;;;;;;;;;;2092600;28;20107;-68
2023/09/16 03:08:05;;;;;;;2.20;1.77;;;;;;;;;;2092677;28;20134;-68
2023/09/16 03:09:24;;;;;;;2.85;1.88;;;;;;;;;;2093516;28;20390;-67
2023/09/16 03:10:45;;;;;;;3.90;2.20;;;;;;;;;;2093248;28;20032;-67
2023/09/16 03:12:03;;;;;;;2.08;1.55;;;;;;;;;;2092141;28;20032;-67
2023/09/16 03:13:22;;;;;;;2.47;2.05;;;;;;;;;;2091189;28;20394;-68
2023/09/16 03:14:41;;;;;;;3.83;2.05;;;;;;;;;;2091721;28;20444;-67
2023/09/16 03:16:13;;;;;;;3.22;1.90;;;;;;;;;;2091676;28;20040;-67
2023/09/16 03:17:32;;;;;;;2.35;2.00;;;;;;;;;;2093685;28;20028;-67
2023/09/16 03:18:51;;;;;;;2.55;1.85;;;;;;;;;;2091193;28;20029;-67
2023/09/16 03:20:10;;;;;;;2.28;2.08;;;;;;;;;;2092679;28;20045;-67
2023/09/16 03:21:29;;;;;;;3.83;2.17;;;;;;;;;;2092104;28;20033;-67
2023/09/16 03:22:48;;;;;;;3.58;2.50;;;;;;;;;;2091756;28;20036;-68
2023/09/16 03:24:07;;;;;;;3.08;2.03;;;;;;;;;;2090343;28;20033;-67
2023/09/16 03:25:26;;;;;;;1.85;1.70;;;;;;;;;;2091755;28;20037;-67
2023/09/16 03:26:45;;;;;;;5.13;2.17;;;;;;;;;;2091118;28;20037;-68
2023/09/16 03:28:04;;;;;;;3.55;1.95;;;;;;;;;;2092393;28;20389;-67
2023/09/16 03:29:24;;;;;;;3.45;2.38;;;;;;;;;;2091878;28;20040;-67
2023/09/16 03:30:43;;;;;;;3.83;2.00;;;;;;;;;;2091701;28;20068;-66
2023/09/16 03:32:02;;;;;;;5.13;2.22;;;;;;;;;;2093258;28;20017;-67
2023/09/16 03:33:20;;;;;;;3.80;2.00;;;;;;;;;;2093530;28;20104;-68
2023/09/16 03:34:39;;;;;;;4.20;2.15;;;;;;;;;;2093367;28;20493;-67
2023/09/16 03:35:59;;;;;;;3.78;2.08;;;;;;;;;;2092094;28;20497;-67
2023/09/16 03:37:17;;;;;;;2.83;2.35;;;;;;;;;;2090891;28;20029;-67
2023/09/16 03:38:45;;;;;;;2.35;1.90;;;;;;;;;;2097377;28;20025;-67
2023/09/16 03:40:04;;;;;;;5.75;2.50;;;;;;;;;;2090227;28;20029;-66
2023/09/16 03:41:23;;;;;;;2.80;2.00;;;;;;;;;;2089621;28;20477;-67
2023/09/16 03:42:42;;;;;;;5.18;2.10;;;;;;;;;;2091397;28;20486;-68
2023/09/16 03:44:01;;;;;;;3.17;2.55;;;;;;;;;;2091006;28;20037;-67
2023/09/16 03:45:20;;;;;;;3.80;2.03;;;;;;;;;;2091228;28;20498;-67
2023/09/16 03:46:39;;;;;;;2.78;2.05;;;;;;;;;;2097644;28;20056;-68
2023/09/16 03:47:58;;;;;;;3.35;1.95;;;;;;;;;;2094804;28;20024;-68
2023/09/16 03:49:17;;;;;;;2.47;2.10;;;;;;;;;;2091836;28;20469;-68
2023/09/16 03:50:36;;;;;;;3.67;2.22;;;;;;;;;;2092756;28;20060;-67
2023/09/16 03:51:55;;;;;;;2.97;2.30;;;;;;;;;;2091540;28;20025;-67
2023/09/16 03:53:14;;;;;;;2.35;2.15;;;;;;;;;;2092222;28;20103;-67
2023/09/16 03:54:33;;;;;;;2.60;2.15;;;;;;;;;;2100101;28;20029;-67
2023/09/16 03:55:52;;;;;;;4.22;2.00;;;;;;;;;;2095600;28;20032;-67
2023/09/16 03:57:11;;;;;;;2.85;2.38;;;;;;;;;;2092628;28;20447;-67
2023/09/16 03:58:30;;;;;;;3.20;2.30;;;;;;;;;;2091806;28;20120;-67
2023/09/16 03:59:49;;;;;;;3.80;2.38;;;;;;;;;;2089184;28;20124;-67
2023/09/16 04:01:09;;;;;;;2.55;2.08;;;;;;;;;;2092240;28;20024;-68
2023/09/16 04:02:28;;;;;;;4.20;2.20;;;;;;;;;;2091723;28;20497;-67
2023/09/16 04:03:47;;;;;;;2.00;1.90;;;;;;;;;;2089403;28;20032;-68
2023/09/16 04:05:06;;;;;;;3.72;2.08;;;;;;;;;;2091453;28;20029;-67
2023/09/16 04:06:26;;;;;;;2.42;2.10;;;;;;;;;;2090869;28;20032;-67
2023/09/16 04:07:45;;;;;;;1.98;1.77;;;;;;;;;;2091658;28;20524;-67
2023/09/16 04:09:04;;;;;;;2.53;1.80;;;;;;;;;;2092753;28;20033;-68
2023/09/16 04:10:23;;;;;;;4.15;2.13;;;;;;;;;;2091945;28;20033;-69
2023/09/16 04:11:42;;;;;;;2.47;2.28;;;;;;;;;;2092067;28;20052;-67
2023/09/16 04:13:01;;;;;;;3.17;2.03;;;;;;;;;;2092170;28;20029;-67
2023/09/16 04:14:20;;;;;;;4.00;2.25;;;;;;;;;;2092522;28;20397;-68
2023/09/16 04:15:39;;;;;;;3.22;2.05;;;;;;;;;;2092584;28;20033;-67
2023/09/16 04:16:58;;;;;;;1.90;1.80;;;;;;;;;;2091361;28;20444;-67
2023/09/16 04:18:17;;;;;;;1.75;1.65;;;;;;;;;;2091426;28;20025;-67
2023/09/16 04:19:36;;;;;;;2.35;2.00;;;;;;;;;;2091936;28;20032;-67
2023/09/16 04:20:55;;;;;;;3.10;2.20;;;;;;;;;;2091096;28;20033;-67
2023/09/16 04:22:14;;;;;;;3.25;2.13;;;;;;;;;;2091138;28;20036;-67
2023/09/16 04:23:35;;;;;;;2.53;2.35;;;;;;;;;;2090920;28;20061;-67
2023/09/16 04:24:53;;;;;;;2.30;2.10;;;;;;;;;;2091126;28;20025;-68
2023/09/16 04:26:15;;;;;;;3.20;2.50;;;;;;;;;;2092013;28;20017;-68
2023/09/16 04:27:33;;;;;;;3.15;2.25;;;;;;;;;;2091387;28;20100;-67
2023/09/16 04:28:52;;;;;;;3.95;2.08;;;;;;;;;;2090460;28;20037;-67
2023/09/16 04:30:11;;;;;;;3.15;1.77;;;;;;;;;;2091439;28;20045;-68
2023/09/16 04:31:30;;;;;;;2.38;2.17;;;;;;;;;;2092999;28;20485;-68
2023/09/16 04:32:49;;;;;;;2.90;1.77;;;;;;;;;;2091928;28;20037;-67
2023/09/16 04:34:08;;;;;;;2.50;2.30;;;;;;;;;;2091836;28;20036;-67
2023/09/16 04:35:27;;;;;;;2.45;2.20;;;;;;;;;;2092021;28;20029;-67
2023/09/16 04:36:46;;;;;;;2.08;1.88;;;;;;;;;;2091689;28;20051;-68
2023/09/16 04:38:05;;;;;;;2.78;2.40;;;;;;;;;;2090167;28;20032;-68
2023/09/16 04:39:25;;;;;;;2.22;2.03;;;;;;;;;;2090969;28;20033;-67
2023/09/16 04:40:44;;;;;;;2.45;2.20;;;;;;;;;;2090834;28;20068;-68
2023/09/16 04:42:04;;;;;;;2.50;2.30;;;;;;;;;;2091258;28;20032;-68
2023/09/16 04:43:25;;;;;;;3.28;2.20;;;;;;;;;;2092127;28;20037;-67
2023/09/16 04:44:44;;;;;;;2.60;2.40;;;;;;;;;;2091600;28;20301;-67
2023/09/16 04:46:03;;;;;;;2.88;2.47;;;;;;;;;;2091264;28;20088;-67
2023/09/16 04:47:22;;;;;;;2.03;1.92;;;;;;;;;;2090261;28;20037;-68
2023/09/16 04:48:41;;;;;;;5.25;2.05;;;;;;;;;;2099399;28;20459;-68
2023/09/16 04:50:00;;;;;;;7.90;2.88;;;;;;;;;;2095293;28;20037;-67
2023/09/16 04:51:19;;;;;;;2.50;2.30;;;;;;;;;;2091285;28;20473;-67
2023/09/16 04:52:38;;;;;;;2.20;2.00;;;;;;;;;;2089661;28;20028;-67
2023/09/16 04:53:57;;;;;;;4.07;2.33;;;;;;;;;;2086591;28;20028;-68
2023/09/16 04:55:16;;;;;;;5.75;2.45;;;;;;;;;;2090694;28;20025;-68
2023/09/16 04:56:35;;;;;;;3.58;2.40;;;;;;;;;;2091611;28;20541;-68
2023/09/16 04:57:54;;;;;;;3.80;2.10;;;;;;;;;;2097333;28;20029;-67
2023/09/16 04:59:13;;;;;;;3.25;2.47;;;;;;;;;;2093648;28;20063;-68
2023/09/16 05:00:35;;;;;;;2.88;2.30;;;;;;;;;;2092509;28;20029;-68
2023/09/16 05:01:54;;;;;;;2.70;2.47;;;;;;;;;;2090055;28;20052;-68
2023/09/16 05:03:13;;;;;;;3.30;2.15;;;;;;;;;;2096725;28;20048;-68
2023/09/16 05:04:32;;;;;;;3.90;2.72;;;;;;;;;;2091286;28;20028;-68
2023/09/16 05:05:52;;;;;;;4.57;2.40;;;;;;;;;;2091755;28;20024;-68
2023/09/16 05:07:11;;;;;;;4.25;2.58;;;;;;;;;;2091236;28;21015;-67
2023/09/16 05:08:31;;;;;;;2.85;1.83;;;;;;;;;;2091420;28;20013;-69
2023/09/16 05:09:50;;;;;;;3.97;2.10;;;;;;;;;;2090947;28;20028;-67
2023/09/16 05:11:09;;;;;;;3.40;2.45;;;;;;;;;;2090728;28;20522;-68
2023/09/16 05:12:27;;;;;;;2.53;2.33;;;;;;;;;;2092224;28;20033;-69
2023/09/16 05:13:47;;;;;;;4.50;2.40;;;;;;;;;;2092330;28;20060;-67
2023/09/16 05:15:06;;;;;;;3.92;2.50;;;;;;;;;;2091312;28;20037;-66
2023/09/16 05:16:25;;;;;;;2.53;2.30;;;;;;;;;;2088782;28;20017;-67
2023/09/16 05:17:44;;;;;;;3.22;1.95;;;;;;;;;;2090160;28;20018;-66
2023/09/16 05:19:03;;;;;;;3.45;2.30;;;;;;;;;;2091463;28;20029;-68
2023/09/16 05:20:21;;;;;;;2.95;2.33;;;;;;;;;;2092270;28;20432;-68
2023/09/16 05:21:41;;;;;;;2.78;2.22;;;;;;;;;;2090265;28;20029;-66
2023/09/16 05:23:01;;;;;;;5.43;2.33;;;;;;;;;;2090307;28;20036;-66
2023/09/16 05:24:20;;;;;;;3.17;2.05;;;;;;;;;;2090572;28;20024;-68
2023/09/16 05:25:46;;;;;;;2.50;2.30;;;;;;;;;;2090369;28;20033;-67
2023/09/16 05:27:05;;;;;;;4.13;2.42;;;;;;;;;;2091307;28;20033;-69
2023/09/16 05:28:24;;;;;;;3.38;2.15;;;;;;;;;;2092491;28;20029;-69
2023/09/16 05:29:43;;;;;;;2.50;2.20;;;;;;;;;;2091682;28;20064;-67
2023/09/16 05:31:03;;;;;;;2.00;1.90;;;;;;;;;;2090957;28;20048;-67
2023/09/16 05:32:22;;;;;;;3.17;2.65;;;;;;;;;;2099160;28;20024;-67
2023/09/16 05:33:41;;;;;;;3.30;2.08;;;;;;;;;;2093030;28;20108;-67
2023/09/16 05:35:00;;;;;;;2.38;2.17;;;;;;;;;;2092368;28;20025;-67
2023/09/16 05:36:23;;;;;;;4.70;2.58;;;;;;;;;;2097248;28;20134;-67
2023/09/16 05:37:42;;;;;;;3.35;2.50;;;;;;;;;;2089203;28;20028;-67
2023/09/16 05:39:02;;;;;;;2.97;2.20;;;;;;;;;;2090648;28;20021;-67
2023/09/16 05:40:20;;;;;;;2.13;1.77;;;;;;;;;;2091212;28;20029;-67
2023/09/16 05:41:40;;;;;;;2.50;1.67;;;;;;;;;;2090669;28;20036;-68
2023/09/16 05:42:59;;;;;;;2.40;2.20;;;;;;;;;;2090654;28;20055;-67
2023/09/16 05:44:21;;;;;;;9.23;1.98;;;;;;;;;;2090803;28;20029;-67
2023/09/16 05:45:40;;;;;;;2.50;2.30;;;;;;;;;;2097512;28;20028;-67
2023/09/16 05:46:59;;;;;;;4.25;2.00;;;;;;;;;;2094676;28;20063;-67
2023/09/16 05:48:18;;;;;;;1.88;1.77;;;;;;;;;;2100280;28;20507;-67
2023/09/16 05:49:38;;;;;;;2.95;2.08;;;;;;;;;;2095278;28;20032;-68
2023/09/16 05:50:57;;;;;;;2.28;2.08;;;;;;;;;;2091123;28;20020;-67
2023/09/16 05:52:16;;;;;;;3.50;2.20;;;;;;;;;;2098848;28;20112;-67
2023/09/16 05:53:35;;;;;;;2.40;2.00;;;;;;;;;;2093120;28;20033;-67
2023/09/16 05:54:54;;;;;;;3.75;2.03;;;;;;;;;;2091383;28;20017;-67
2023/09/16 05:56:13;;;;;;;4.30;2.28;;;;;;;;;;2090785;28;20543;-67
2023/09/16 05:57:32;;;;;;;3.90;2.28;;;;;;;;;;2098167;28;20024;-68
2023/09/16 05:58:51;;;;;;;1.92;1.83;;;;;;;;;;2089838;28;20051;-68
2023/09/16 06:00:10;;;;;;;1.85;1.75;;;;;;;;;;2091327;28;20036;-68
2023/09/16 06:01:29;;;;;;;3.50;2.03;;;;;;;;;;2090737;28;20706;-68
2023/09/16 06:02:48;;;;;;;3.55;1.42;;;;;;;;;;2089188;28;20486;-68
2023/09/16 06:04:08;;;;;;;2.83;1.80;;;;;;;;;;2091350;28;20032;-68
2023/09/16 06:05:29;;;;;;;1.85;1.75;;;;;;;;;;2099048;28;20029;-66
2023/09/16 06:06:49;;;;;;;2.67;2.28;;;;;;;;;;2092986;28;20025;-67
2023/09/16 06:08:09;;;;;;;4.55;2.50;;;;;;;;;;2090950;28;20036;-69
2023/09/16 06:09:29;;;;;;;2.20;1.80;;;;;;;;;;2092366;28;20036;-67
2023/09/16 06:10:48;;;;;;;2.03;1.80;;;;;;;;;;2092551;28;20024;-68
2023/09/16 06:12:07;;;;;;;3.78;1.70;;;;;;;;;;2092913;28;20033;-68
2023/09/16 06:13:26;;;;;;;2.58;1.90;;;;;;;;;;2091985;28;20021;-67
2023/09/16 06:14:45;;;;;;;5.53;2.33;;;;;;;;;;2090626;28;20846;-67
2023/09/16 06:16:05;;;;;;;2.22;1.90;;;;;;;;;;2089514;28;20025;-68
2023/09/16 06:17:24;;;;;;;3.35;2.17;;;;;;;;;;2090889;28;20025;-68
2023/09/16 06:18:43;;;;;;;2.15;1.95;;;;;;;;;;2091887;28;20029;-68
2023/09/16 06:20:02;;;;;;;1.90;1.80;;;;;;;;;;2091567;28;20115;-68
2023/09/16 06:21:21;;;;;;;3.17;2.20;;;;;;;;;;2090483;28;20029;-68
2023/09/16 06:22:40;;;;;;;2.10;1.90;;;;;;;;;;2092294;28;20025;-68
2023/09/16 06:23:59;;;;;;;2.10;1.90;;;;;;;;;;2092970;28;20025;-68
2023/09/16 06:25:18;;;;;;;5.47;2.17;;;;;;;;;;2093265;28;20436;-68
2023/09/16 06:26:37;;;;;;;2.42;1.92;;;;;;;;;;2092652;28;20029;-69
2023/09/16 06:27:58;;;;;;;2.00;1.90;;;;;;;;;;2093196;28;20041;-68
2023/09/16 06:29:16;;;;;;;3.30;1.95;;;;;;;;;;2092114;28;20020;-68
2023/09/16 06:30:38;;;;;;;4.00;1.92;;;;;;;;;;2091369;28;20033;-68
2023/09/16 06:31:57;;;;;;;2.00;1.77;;;;;;;;;;2092007;28;20033;-68
2023/09/16 06:33:16;;;;;;;3.00;1.85;;;;;;;;;;2092074;28;20500;-69
2023/09/16 06:34:35;;;;;;;2.17;1.70;;;;;;;;;;2091598;28;20465;-68
2023/09/16 06:35:54;;;;;;;2.45;1.60;;;;;;;;;;2093168;28;20025;-67
2023/09/16 06:37:15;;;;;;;2.65;1.60;;;;;;;;;;2092537;28;20025;-68
2023/09/16 06:38:34;;;;;;;2.30;1.58;;;;;;;;;;2092017;28;20032;-68
2023/09/16 06:39:53;;;;;;;3.63;2.22;;;;;;;;;;2093879;28;20103;-68
2023/09/16 06:41:12;;;;;;;2.47;1.50;;;;;;;;;;2092740;28;20036;-68
2023/09/16 06:42:31;;;;;;;2.33;1.55;;;;;;;;;;2092217;28;20032;-68
2023/09/16 06:43:50;;;;;;;2.72;1.67;;;;;;;;;;2091516;28;20072;-68
2023/09/16 06:45:09;;;;;;;2.33;1.60;;;;;;;;;;2092469;28;20028;-67
2023/09/16 06:46:28;;;;;;;3.45;1.70;;;;;;;;;;2092041;28;20434;-67
2023/09/16 06:47:47;;;;;;;2.08;1.60;;;;;;;;;;2093553;28;20033;-67
2023/09/16 06:49:06;;;;;;;3.13;1.75;;;;;;;;;;2098931;28;20533;-67
2023/09/16 06:50:25;;;;;;;1.48;1.38;;;;;;;;;;2091661;28;20509;-67
2023/09/16 06:51:44;;;;;;;3.22;1.90;;;;;;;;;;2091340;28;20041;-68
2023/09/16 06:53:03;;;;;;;2.08;1.58;;;;;;;;;;2090540;28;20043;-67
2023/09/16 06:54:22;;;;;;;2.42;1.75;;;;;;;;;;2092838;28;20028;-68
2023/09/16 06:55:40;;;;;;;1.63;1.30;;;;;;;;;;2091397;28;20033;-68
2023/09/16 06:57:00;;;;;;;2.17;1.52;;;;;;;;;;2092054;28;20406;-68
2023/09/16 06:58:20;;;;;;;3.03;1.48;;;;;;;;;;2089060;28;20036;-67
2023/09/16 06:59:39;;;;;;;2.92;1.70;;;;;;;;;;2091381;28;20033;-67
2023/09/16 07:01:06;;;;;;;2.33;1.63;;;;;;;;;;2090688;28;20115;-67
2023/09/16 07:02:25;;;;;;;1.77;1.58;;;;;;;;;;2092025;28;20033;-68
2023/09/16 07:03:46;;;;;;;2.55;1.50;;;;;;;;;;2091156;28;20033;-68
2023/09/16 07:05:05;;;;;;;1.52;1.40;;;;;;;;;;2091744;28;20037;-67
2023/09/16 07:06:24;;;;;;;2.35;1.73;;;;;;;;;;2092267;28;20033;-67
2023/09/16 07:07:43;;;;;;;1.63;1.10;;;;;;;;;;2092897;28;20489;-68
2023/09/16 07:09:05;;;;;;;2.28;1.63;;;;;;;;;;2093229;28;20116;-67
2023/09/16 07:10:24;;;;;;;2.35;1.70;;;;;;;;;;2100644;28;20032;-66
2023/09/16 07:11:43;;;;;;;1.95;1.50;;;;;;;;;;2095832;28;20036;-66
2023/09/16 07:13:03;;;;;;;1.38;1.27;;;;;;;;;;2090558;28;20060;-67
2023/09/16 07:14:22;;;;;;;8.90;1.65;;;;;;;;;;2091410;28;20033;-67
2023/09/16 07:15:41;;;;;;;6.32;1.40;;;;;;;;;;2098433;28;20142;-67
2023/09/16 07:17:00;;;;;;;2.75;1.15;;;;;;;;;;2094451;28;20064;-67
2023/09/16 07:18:19;;;;;;;3.25;1.50;;;;;;;;;;2092216;28;20029;-67
2023/09/16 07:19:38;;;;;;;11.70;1.63;;;;;;;;;;2092572;28;20116;-68
2023/09/16 07:20:57;;;;;;;3.55;1.60;;;;;;;;;;2092443;28;20477;-68
2023/09/16 07:22:18;;;;;;;2.80;1.60;;;;;;;;;;2099426;28;20035;-67
2023/09/16 07:23:36;;;;;;;3.97;1.70;;;;;;;;;;2094639;28;20060;-67
2023/09/16 07:24:56;;;;;;;2.63;1.27;;;;;;;;;;2091972;28;20393;-67
2023/09/16 07:26:15;;;;;;;4.45;1.60;;;;;;;;;;2092695;28;20402;-67
2023/09/16 07:27:34;;;;;;;2.13;1.40;;;;;;;;;;2093242;28;20151;-67
2023/09/16 07:28:53;;;;;;;1.50;1.17;;;;;;;;;;2092682;28;20512;-67
2023/09/16 07:30:15;;;;;;;4.53;1.05;;;;;;;;;;2091686;28;20046;-67
2023/09/16 07:31:34;;;;;;;1.88;1.33;;;;;;;;;;2091765;28;20040;-68
2023/09/16 07:32:53;;;;;;;1.80;1.10;;;;;;;;;;2092332;28;20025;-68
2023/09/16 07:34:12;;;;;;;3.88;1.10;;;;;;;;;;2090931;28;20025;-68
2023/09/16 07:35:31;;;;;;;2.72;1.33;;;;;;;;;;2092039;28;20115;-69
2023/09/16 07:36:50;;;;;;;5.03;1.63;;;;;;;;;;2091092;28;20029;-69
2023/09/16 07:38:09;;;;;;;1.10;1.00;;;;;;;;;;2091038;28;20024;-67
2023/09/16 07:39:28;;;;;;;2.83;1.70;;;;;;;;;;2091877;28;20463;-68
2023/09/16 07:40:50;;;;;;;1.98;1.15;;;;;;;;;;2092416;28;20029;-68
2023/09/16 07:42:09;;;;;;;2.88;1.50;;;;;;;;;;2090795;28;20032;-67
2023/09/16 07:43:28;;;;;;;2.95;1.17;;;;;;;;;;2091395;28;20036;-68
2023/09/16 07:44:47;;;;;;;1.70;1.40;;;;;;;;;;2092431;28;20029;-68
2023/09/16 07:46:07;;;;;;;2.15;1.65;;;;;;;;;;2091190;28;20498;-69
2023/09/16 07:47:25;;;;;;;3.00;1.20;;;;;;;;;;2087769;28;20481;-68
2023/09/16 07:48:44;;;;;;;1.73;1.20;;;;;;;;;;2090923;28;20378;-67
2023/09/16 07:50:04;;;;;;;4.78;1.40;;;;;;;;;;2094080;28;20463;-67
2023/09/16 07:51:23;;;;;;;3.65;1.58;;;;;;;;;;2092903;28;20120;-67
2023/09/16 07:52:42;;;;;;;3.65;1.33;;;;;;;;;;2091256;28;20100;-67
2023/09/16 07:54:01;;;;;;;2.80;1.27;;;;;;;;;;2090562;28;20024;-67
2023/09/16 07:55:20;;;;;;;1.73;1.02;;;;;;;;;;2092049;28;20056;-68
2023/09/16 07:56:38;;;;;;;2.35;1.38;;;;;;;;;;2090601;28;20033;-68